METAR Data
IDs: Format: Raw Decoded Include TAF

Data at: 1848 UTC 16 Oct 2021

KCZT 161830Z AUTO 00000KT 10SM CLR 23/01 A3035 RMK AO2
KCZT 161810Z AUTO 03010G14KT 10SM CLR 23/02 A3036 RMK AO2
KCZT 161750Z AUTO 04005KT 10SM CLR 23/02 A3037 RMK AO2
KCZT 161730Z AUTO 01006KT 10SM CLR 23/02 A3038 RMK AO2
KCZT 161710Z AUTO 03006KT 10SM CLR 22/02 A3039 RMK AO2
KCZT 161650Z AUTO 04006KT 10SM CLR 22/03 A3040 RMK AO2
KCZT 161630Z AUTO 06007KT 10SM CLR 21/02 A3040 RMK AO2
KCZT 161610Z AUTO 05008KT 10SM CLR 21/02 A3041 RMK AO2
KCZT 161550Z AUTO 06009G16KT 020V080 10SM CLR 21/03 A3041 RMK AO2
KCZT 161530Z AUTO 05009KT 10SM CLR 20/02 A3041 RMK AO2
KCZT 161510Z AUTO 04006KT 10SM CLR 20/03 A3040 RMK AO2
KCZT 161450Z AUTO 03009KT 10SM CLR 20/03 A3041 RMK AO2
KCZT 161430Z AUTO 01005KT 10SM CLR 19/05 A3040 RMK AO2
KCZT 161410Z AUTO 35007KT 10SM CLR 18/05 A3039 RMK AO2
KCZT 161350Z AUTO 35006KT 10SM CLR 17/06 A3038 RMK AO2
KCZT 161330Z AUTO 34005KT 10SM CLR 16/06 A3037 RMK AO2
KCZT 161310Z AUTO 34003KT 10SM CLR 15/06 A3037 RMK AO2
KCZT 161250Z AUTO 35003KT 10SM CLR 15/06 A3035 RMK AO2
KCZT 161230Z AUTO 35004KT 10SM CLR 15/06 A3035 RMK AO2
KCZT 161210Z AUTO 36004KT 10SM CLR 15/06 A3034 RMK AO2
KCZT 161150Z AUTO 36004KT 10SM CLR 15/06 A3033 RMK AO2
KCZT 161130Z AUTO 36005KT 10SM CLR 15/06 A3031 RMK AO2
KCZT 161110Z AUTO 36004KT 10SM CLR 16/06 A3031 RMK AO2
KCZT 161050Z AUTO 01004KT 10SM CLR 16/06 A3030 RMK AO2
KCZT 161030Z AUTO 01004KT 10SM SCT085 17/06 A3030 RMK AO2
KCZT 161010Z AUTO 02005KT 10SM BKN085 17/06 A3028 RMK AO2
KCZT 160950Z AUTO 02005KT 10SM OVC085 18/07 A3028 RMK AO2
KCZT 160930Z AUTO 03010KT 10SM OVC085 18/07 A3027 RMK AO2
KCZT 160910Z AUTO 03006KT 10SM OVC085 18/07 A3026 RMK AO2
KCZT 160850Z AUTO 02006KT 10SM OVC085 19/07 A3025 RMK AO2
KCZT 160830Z AUTO 03005KT 10SM OVC085 20/07 A3025 RMK AO2
KCZT 160810Z AUTO 02008KT 10SM OVC085 20/08 A3025 RMK AO2
KCZT 160750Z AUTO 03010KT 10SM SCT070 BKN085 20/08 A3024 RMK AO2
KCZT 160730Z AUTO 04007KT 10SM BKN070 BKN085 20/08 A3023 RMK AO2
KCZT 160710Z AUTO 04014G20KT 10SM SCT060 SCT085 20/08 A3023 RMK AO2
KCZT 160650Z AUTO 03005KT 10SM SCT075 20/10 A3023 RMK AO2
KCZT 160630Z AUTO 02005KT 10SM BKN075 20/10 A3022 RMK AO2
KCZT 160610Z AUTO 01005KT 10SM SCT065 SCT075 21/10 A3021 RMK AO2
KCZT 160550Z AUTO 01006KT 10SM SCT055 BKN075 21/11 A3021 RMK AO2
KCZT 160530Z AUTO 02005KT 10SM BKN055 OVC075 21/11 A3021 RMK AO2
KCZT 160510Z AUTO 03005KT 10SM BKN055 BKN075 21/11 A3020 RMK AO2
KCZT 160450Z AUTO 00000KT 10SM BKN055 OVC075 21/11 A3020 RMK AO2
KCZT 160430Z AUTO 01004KT 10SM OVC055 21/11 A3019 RMK AO2
KCZT 160410Z AUTO 00000KT 10SM BKN055 BKN070 20/11 A3018 RMK AO2
KCZT 160350Z AUTO 00000KT 10SM BKN070 21/11 A3017 RMK AO2
KCZT 160330Z AUTO 00000KT 10SM SCT070 22/11 A3015 RMK AO2
KCZT 160310Z AUTO 04004KT 10SM CLR 22/11 A3014 RMK AO2
KCZT 160250Z AUTO 05005KT 10SM CLR 23/11 A3012 RMK AO2
KCZT 160230Z AUTO 04009KT 10SM CLR 24/11 A3010 RMK AO2
KCZT 160210Z AUTO 04007KT 10SM CLR 24/11 A3007 RMK AO2
KCZT 160150Z AUTO 03007KT 10SM CLR 25/12 A3005 RMK AO2
KCZT 160130Z AUTO 03005KT 10SM CLR 25/13 A3005 RMK AO2
KCZT 160110Z AUTO 02005KT 10SM CLR 25/18 A3002 RMK AO2
KCZT 160050Z AUTO 04005KT 10SM CLR 25/18 A3000 RMK AO2
KCZT 160030Z AUTO 04006KT 10SM CLR 25/19 A2999 RMK AO2
KCZT 160010Z AUTO 05006KT 10SM CLR 26/20 A3000 RMK AO2
KCZT 152350Z AUTO 06008KT 10SM CLR 26/20 A2999 RMK AO2
KCZT 152335Z AUTO 07008G16KT 10SM CLR 27/20 A2999 RMK AO2
KCZT 152315Z AUTO 06005KT 10SM CLR 28/20 A2997 RMK AO2
KCZT 152250Z AUTO 07006KT 10SM SCT050 SCT055 SCT070 27/19 A2996 RMK AO2
KCZT 152230Z AUTO 06009G16KT 10SM OVC047 29/20 A2996 RMK AO2
KCZT 152210Z AUTO 03010G16KT 10SM SCT037 OVC044 31/20 A2995 RMK AO2
KCZT 152150Z AUTO 01008KT 10SM SCT036 BKN043 BKN055 30/21 A2994 RMK AO2
KCZT 152130Z AUTO 35010G15KT 10SM -RA SCT034 SCT040 BKN055 29/23 A2992 RMK AO2
KCZT 152110Z AUTO 35010G14KT 10SM SCT034 SCT040 SCT048 33/23 A2992 RMK AO2
KCZT 152050Z AUTO 32005KT 10SM SCT110 32/22 A2992 RMK AO2
KCZT 152030Z AUTO 34006KT 10SM RA SCT030 SCT050 BKN110 30/23 A2993 RMK AO2 LTG DSNT S
KCZT 152010Z AUTO 34008KT 10SM SCT030 SCT038 BKN110 32/22 A2993 RMK AO2 LTG DSNT SE
KCZT 151950Z AUTO 32005KT 10SM SCT049 31/22 A2994 RMK AO2
KCZT 151930Z AUTO 00000KT 10SM BKN049 31/23 A2995 RMK AO2
KCZT 151910Z AUTO 32003KT 10SM SCT019 SCT025 BKN049 30/23 A2996 RMK AO2
KCZT 151850Z AUTO 03004KT 10SM SCT015 SCT027 BKN049 29/23 A2996 RMK AO2
KCZT 151830Z AUTO 35004KT 10SM BKN015 BKN019 OVC027 28/24 A2997 RMK AO2
KCZT 151810Z AUTO 00000KT 10SM BKN011 OVC017 27/25 A2997 RMK AO2
KCZT 151750Z AUTO 34003KT 10SM OVC009 27/25 A2999 RMK AO2
KCZT 151730Z AUTO 00000KT 10SM OVC007 26/26 A2999 RMK AO2
KCZT 151710Z AUTO 00000KT 7SM OVC007 26/26 A2999 RMK AO2
KCZT 151650Z AUTO 00000KT 3SM BR OVC005 25/25 A2999 RMK AO2
KCZT 151630Z AUTO 00000KT 4SM BR BKN005 OVC009 25/25 A2999 RMK AO2
KCZT 151610Z AUTO 00000KT 1 3/4SM BR OVC003 25/25 A2999 RMK AO2
KCZT 151550Z AUTO 00000KT 1 3/4SM BR OVC003 25/25 A2999 RMK AO2
KCZT 151530Z AUTO 00000KT 1 3/4SM BR OVC003 24/24 A2998 RMK AO2
KCZT 151510Z AUTO 00000KT 2 1/2SM BR OVC003 24/24 A2997 RMK AO2
KCZT 151450Z AUTO 00000KT 2SM BR OVC003 24/24 A2996 RMK AO2
KCZT 151430Z AUTO 00000KT 2SM BR OVC003 24/24 A2995 RMK AO2 VIS 1V3
KCZT 151410Z AUTO 00000KT 1 1/2SM BR OVC003 23/23 A2993 RMK AO2
KCZT 151350Z AUTO 00000KT 1 1/4SM BR OVC003 23/23 A2992 RMK AO2
KCZT 151330Z AUTO 13005KT 3SM BR OVC003 23/23 A2991 RMK AO2
KCZT 151310Z AUTO 14004KT 3SM BR OVC003 23/23 A2990 RMK AO2
KCZT 151250Z AUTO 13004KT 4SM BR OVC003 23/23 A2990 RMK AO2
KCZT 151230Z AUTO 12003KT 7SM OVC003 23/23 A2989 RMK AO2
KCZT 151210Z AUTO 12003KT 5SM BR OVC003 23/23 A2989 RMK AO2
KCZT 151150Z AUTO 00000KT 5SM BR OVC003 23/23 A2988 RMK AO2
KCZT 151130Z AUTO 13003KT 5SM BR OVC003 23/23 A2987 RMK AO2
KCZT 151110Z AUTO 00000KT 7SM OVC003 22/22 A2987 RMK AO2
KCZT 151050Z AUTO 00000KT 7SM OVC003 22/22 A2987 RMK AO2
KCZT 151030Z AUTO 00000KT 5SM BR OVC003 22/22 A2986 RMK AO2
KCZT 151010Z AUTO 00000KT 5SM BR BKN003 22/22 A2986 RMK AO2
KCZT 150950Z AUTO 00000KT 7SM CLR 22/22 A2985 RMK AO2
KCZT 150930Z AUTO 00000KT 7SM CLR 21/21 A2985 RMK AO2
KCZT 150910Z AUTO 00000KT 7SM CLR 22/22 A2985 RMK AO2
KCZT 150850Z AUTO 00000KT 7SM CLR 22/22 A2985 RMK AO2
KCZT 150830Z AUTO 00000KT 10SM CLR 22/22 A2985 RMK AO2
KCZT 150810Z AUTO 11003KT 10SM CLR 22/22 A2985 RMK AO2
KCZT 150750Z AUTO 00000KT 10SM CLR 22/22 A2985 RMK AO2
KCZT 150730Z AUTO 00000KT 10SM CLR 22/22 A2985 RMK AO2
KCZT 150710Z AUTO 11003KT 10SM CLR 22/22 A2985 RMK AO2
KCZT 150650Z AUTO 10003KT 10SM CLR 22/22 A2985 RMK AO2